Time;durP1;ratioP1;P1;durP2;ratioP2;P2;SDS_P1;SDS_P2;PMS_P1;PMS_P2;Temp;Humidity;BMP_temperature;BMP_pressure;BME280_temperature;BME280_humidity;BME280_pressure;Samples;Min_cycle;Max_cycle;Signal;HPM_P1;HPM_P2
2023/07/15 00:01:14;;;;;;;6.80;2.53;;;;;;;22.26;49.72;100308.00;4946347;29;20035;-76
2023/07/15 00:03:39;;;;;;;6.07;2.50;;;;;;;22.24;49.71;100297.47;4952546;29;20027;-75
2023/07/15 00:06:05;;;;;;;6.50;2.60;;;;;;;22.20;49.47;100294.38;4953591;29;20038;-80
2023/07/15 00:08:31;;;;;;;5.93;2.67;;;;;;;22.15;49.59;100286.13;4953438;29;20027;-80
2023/07/15 00:10:56;;;;;;;8.93;2.92;;;;;;;22.12;49.40;100288.38;4952204;29;20387;-75
2023/07/15 00:13:22;;;;;;;4.35;2.30;;;;;;;22.07;49.62;100299.72;4935977;29;20023;-81
2023/07/15 00:15:50;;;;;;;3.30;2.25;;;;;;;22.05;49.69;100303.63;4934934;29;20030;-75
2023/07/15 00:18:17;;;;;;;9.10;2.40;;;;;;;22.04;49.44;100296.59;4951836;29;20031;-76
2023/07/15 00:20:44;;;;;;;6.45;2.40;;;;;;;22.00;49.55;100297.97;4937461;29;20110;-81
2023/07/15 00:23:25;;;;;;;5.15;2.40;;;;;;;21.99;50.03;100304.38;4952208;29;20459;-75
2023/07/15 00:25:53;;;;;;;7.43;2.50;;;;;;;21.94;49.78;100301.47;4936404;29;20026;-80
2023/07/15 00:28:19;;;;;;;3.45;2.25;;;;;;;21.90;49.91;100293.84;4936133;29;20027;-81
2023/07/15 00:30:45;;;;;;;6.07;2.45;;;;;;;21.89;49.56;100297.53;4952438;29;20490;-76
2023/07/15 00:33:15;;;;;;;4.35;2.20;;;;;;;21.87;49.78;100296.91;4952299;29;20039;-75
2023/07/15 00:35:43;;;;;;;4.78;2.38;;;;;;;21.88;49.73;100297.75;4950896;29;20086;-81
2023/07/15 00:38:10;;;;;;;5.57;2.20;;;;;;;21.89;49.50;100302.06;4933740;29;20038;-80
2023/07/15 00:40:42;;;;;;;4.07;2.38;;;;;;;21.88;49.84;100300.41;4946332;29;20034;-81
2023/07/15 00:43:45;;;;;;;5.25;2.30;;;;;;;21.92;49.70;100298.16;4951511;28;20506;-80
2023/07/15 00:46:23;;;;;;;3.55;2.13;;;;;;;21.89;49.94;100300.22;4953018;29;20035;-75
2023/07/15 00:48:54;;;;;;;4.75;2.33;;;;;;;21.84;49.63;100308.03;4953372;29;20391;-80
2023/07/15 00:51:21;;;;;;;5.10;2.50;;;;;;;21.83;49.93;100305.56;4952874;29;20031;-80
2023/07/15 00:53:47;;;;;;;4.47;2.30;;;;;;;21.82;50.14;100309.25;4939563;29;20051;-81
2023/07/15 00:56:12;;;;;;;7.18;2.22;;;;;;;21.77;50.22;100312.53;4954015;29;20073;-81
2023/07/15 00:58:39;;;;;;;8.02;2.33;;;;;;;21.78;50.02;100313.38;4935993;29;20023;-80
2023/07/15 01:01:06;;;;;;;7.57;2.25;;;;;;;21.72;50.07;100306.97;4953890;29;20037;-80
2023/07/15 01:03:32;;;;;;;3.30;2.05;;;;;;;21.67;50.08;100306.72;4954201;29;20545;-80
2023/07/15 01:05:57;;;;;;;5.72;2.45;;;;;;;21.63;50.37;100302.81;4952996;29;20114;-75
2023/07/15 01:08:23;;;;;;;3.42;2.10;;;;;;;21.60;50.59;100303.16;4952358;29;20111;-74
2023/07/15 01:10:49;;;;;;;4.80;2.30;;;;;;;21.55;50.49;100308.28;4946464;29;20067;-81
2023/07/15 01:13:14;;;;;;;5.25;2.20;;;;;;;21.52;50.83;100306.00;4958741;29;20031;-80
2023/07/15 01:15:39;;;;;;;5.35;2.40;;;;;;;21.48;51.10;100312.78;4961982;29;20089;-80
2023/07/15 01:18:05;;;;;;;3.55;2.03;;;;;;;21.43;51.21;100320.59;4966056;29;20065;-80
2023/07/15 01:20:32;;;;;;;3.70;2.03;;;;;;;21.38;51.57;100315.00;4962620;29;20402;-80
2023/07/15 01:23:00;;;;;;;6.15;2.20;;;;;;;21.33;51.62;100312.09;4959993;29;20035;-81
2023/07/15 01:25:26;;;;;;;5.13;2.10;;;;;;;21.29;51.42;100313.50;4962737;29;20026;-80
2023/07/15 01:27:52;;;;;;;2.95;2.10;;;;;;;21.25;51.46;100313.91;4958933;28;20086;-75
2023/07/15 01:30:17;;;;;;;5.70;2.22;;;;;;;21.21;52.03;100315.28;4956305;29;20097;-81
2023/07/15 01:32:43;;;;;;;5.43;2.20;;;;;;;21.16;52.26;100314.19;4961344;29;20034;-80
2023/07/15 01:35:08;;;;;;;4.35;2.05;;;;;;;21.09;52.11;100313.31;4960706;29;20019;-80
2023/07/15 01:37:35;;;;;;;3.13;2.00;;;;;;;21.06;52.52;100309.19;4957841;29;20032;-81
2023/07/15 01:40:05;;;;;;;4.10;2.15;;;;;;;21.03;52.48;100316.78;4955629;29;20027;-79
2023/07/15 01:42:31;;;;;;;4.70;1.95;;;;;;;20.97;52.86;100310.38;4961086;29;20114;-79
2023/07/15 01:44:57;;;;;;;4.38;2.33;;;;;;;20.94;53.00;100322.28;4956800;29;20031;-80
2023/07/15 01:47:23;;;;;;;4.95;2.05;;;;;;;20.90;52.92;100330.88;4951443;29;20078;-81
2023/07/15 01:49:48;;;;;;;3.55;2.00;;;;;;;20.84;53.40;100326.31;4951823;28;20416;-81
2023/07/15 01:52:14;;;;;;;4.43;2.40;;;;;;;20.80;53.02;100327.69;4933910;29;20399;-81
2023/07/15 01:54:43;;;;;;;6.13;2.13;;;;;;;20.71;53.60;100323.50;4942467;29;20724;-80
2023/07/15 01:57:09;;;;;;;3.50;2.13;;;;;;;20.66;53.69;100329.44;4950916;29;20114;-75
2023/07/15 01:59:35;;;;;;;2.72;1.92;;;;;;;20.62;54.90;100339.69;4951912;29;20186;-80
2023/07/15 02:02:00;;;;;;;5.00;2.60;;;;;;;20.57;54.52;100336.75;4947344;29;20038;-80
2023/07/15 02:04:25;;;;;;;5.97;2.25;;;;;;;20.51;54.60;100342.88;4951158;29;20027;-80
2023/07/15 02:06:51;;;;;;;5.05;2.42;;;;;;;20.48;54.77;100345.09;4935523;29;20039;-75
2023/07/15 02:09:16;;;;;;;2.60;1.88;;;;;;;20.45;55.23;100332.13;4943242;29;20499;-80
2023/07/15 02:11:43;;;;;;;3.65;2.17;;;;;;;20.34;55.18;100338.72;4949112;29;20411;-75
2023/07/15 02:14:12;;;;;;;9.07;2.30;;;;;;;20.34;55.72;100336.06;4950875;29;20027;-75
2023/07/15 02:16:38;;;;;;;2.80;2.00;;;;;;;20.31;56.19;100347.13;4951587;29;20078;-81
2023/07/15 02:19:03;;;;;;;4.72;2.00;;;;;;;20.28;56.82;100350.19;4952125;29;20483;-81
2023/07/15 02:21:29;;;;;;;3.40;1.92;;;;;;;20.21;56.01;100342.09;4951783;29;20038;-81
2023/07/15 02:23:54;;;;;;;2.70;2.13;;;;;;;20.18;56.66;100347.81;4951629;29;20078;-75
2023/07/15 02:26:20;;;;;;;6.68;2.65;;;;;;;20.08;56.78;100343.78;4950983;29;20510;-80
2023/07/15 02:28:45;;;;;;;5.00;2.40;;;;;;;20.03;56.85;100345.19;4948074;29;20058;-80
2023/07/15 02:31:11;;;;;;;5.00;2.38;;;;;;;20.05;57.03;100352.19;4951083;29;20522;-75
2023/07/15 02:33:36;;;;;;;7.18;2.00;;;;;;;20.00;57.09;100345.53;4951717;29;20126;-75
2023/07/15 02:36:04;;;;;;;6.93;2.40;;;;;;;19.96;57.26;100352.28;4950727;29;20086;-80
2023/07/15 02:38:29;;;;;;;4.75;2.40;;;;;;;19.92;57.26;100345.66;4951432;29;20165;-80
2023/07/15 02:40:56;;;;;;;6.35;2.40;;;;;;;19.92;58.71;100351.00;4951281;29;20102;-75
2023/07/15 02:43:22;;;;;;;7.10;2.20;;;;;;;19.88;58.63;100341.69;4948934;29;20035;-80
2023/07/15 02:45:50;;;;;;;4.45;2.00;;;;;;;19.78;58.97;100343.84;4947116;29;20439;-81
2023/07/15 02:48:15;;;;;;;6.82;2.13;;;;;;;19.78;58.88;100340.34;4951304;29;20039;-75
2023/07/15 02:50:40;;;;;;;5.80;2.30;;;;;;;19.71;58.96;100338.41;4950785;29;20487;-80
2023/07/15 02:53:10;;;;;;;4.85;2.20;;;;;;;19.66;60.03;100332.81;4951665;29;20045;-81
2023/07/15 02:55:35;;;;;;;4.70;2.55;;;;;;;19.55;59.67;100335.91;4951422;29;20027;-80
2023/07/15 02:58:01;;;;;;;5.22;2.40;;;;;;;19.48;60.55;100334.97;4950001;29;20956;-81
2023/07/15 03:00:27;;;;;;;5.25;2.22;;;;;;;19.46;60.43;100337.00;4952049;28;20519;-80
2023/07/15 03:02:52;;;;;;;4.28;2.30;;;;;;;19.46;60.57;100339.66;4952610;29;20050;-81
2023/07/15 03:05:18;;;;;;;5.63;2.38;;;;;;;19.38;60.27;100339.75;4954155;29;20451;-81
2023/07/15 03:07:45;;;;;;;2.72;1.88;;;;;;;19.38;60.80;100345.09;4954936;29;20035;-81
2023/07/15 03:10:12;;;;;;;5.35;2.50;;;;;;;19.33;61.04;100337.63;4946175;29;20060;-81
2023/07/15 03:12:39;;;;;;;4.32;2.40;;;;;;;19.24;61.24;100329.91;4952395;29;20027;-80
2023/07/15 03:15:06;;;;;;;5.30;2.20;;;;;;;19.21;61.55;100332.91;4954468;29;20590;-81
2023/07/15 03:17:35;;;;;;;5.80;2.40;;;;;;;19.25;61.61;100342.22;4952650;29;20082;-81
2023/07/15 03:20:25;;;;;;;3.72;2.10;;;;;;;19.23;61.82;100337.06;4945569;29;20086;-81
2023/07/15 03:22:51;;;;;;;3.45;2.35;;;;;;;19.20;62.03;100337.41;4953850;29;20035;-80
2023/07/15 03:25:19;;;;;;;6.90;2.60;;;;;;;19.14;62.10;100343.47;4953546;29;20145;-75
2023/07/15 03:27:45;;;;;;;6.35;2.35;;;;;;;19.09;62.23;100345.88;4953644;29;20034;-75
2023/07/15 03:30:12;;;;;;;5.75;2.53;;;;;;;19.01;62.53;100332.59;4954421;29;20031;-75
2023/07/15 03:32:39;;;;;;;5.97;2.33;;;;;;;19.01;63.08;100337.94;4954387;29;20507;-81
2023/07/15 03:35:08;;;;;;;4.03;2.38;;;;;;;19.02;63.41;100339.59;4952557;29;20115;-75
2023/07/15 03:37:35;;;;;;;4.63;2.20;;;;;;;18.92;63.69;100339.03;4954828;29;20097;-81
2023/07/15 03:40:02;;;;;;;5.65;2.50;;;;;;;18.85;64.12;100338.91;4953447;29;20035;-81
2023/07/15 03:42:28;;;;;;;4.65;2.40;;;;;;;18.85;64.34;100336.25;4953787;29;20678;-81
2023/07/15 03:44:53;;;;;;;6.57;2.50;;;;;;;18.79;64.17;100337.78;4954470;29;20042;-75
2023/07/15 03:47:22;;;;;;;5.03;2.45;;;;;;;18.77;64.39;100336.31;4949412;29;20508;-80
2023/07/15 03:49:47;;;;;;;6.65;2.72;;;;;;;18.69;64.74;100337.19;4950411;28;20055;-75
2023/07/15 03:52:13;;;;;;;3.67;2.40;;;;;;;18.70;64.72;100336.19;4948535;29;20487;-80
2023/07/15 03:54:38;;;;;;;5.40;2.67;;;;;;;18.66;65.01;100334.06;4953631;29;20436;-81
2023/07/15 03:57:04;;;;;;;4.32;2.38;;;;;;;18.61;65.58;100331.91;4954161;29;20452;-75
2023/07/15 03:59:31;;;;;;;5.35;2.38;;;;;;;18.57;65.35;100335.09;4954194;29;20118;-75
2023/07/15 04:01:56;;;;;;;6.57;2.65;;;;;;;18.58;65.32;100342.91;4952856;29;20034;-75
2023/07/15 04:04:22;;;;;;;3.90;2.20;;;;;;;18.61;65.58;100331.91;4954300;29;20031;-81
2023/07/15 04:06:48;;;;;;;4.45;2.40;;;;;;;18.60;65.53;100335.56;4953971;29;20034;-75
2023/07/15 04:09:14;;;;;;;3.83;2.38;;;;;;;18.62;65.75;100333.59;4943851;29;20087;-75
2023/07/15 04:11:41;;;;;;;5.35;2.33;;;;;;;18.66;65.31;100334.88;4949321;28;20067;-81
2023/07/15 04:14:06;;;;;;;4.45;2.05;;;;;;;19.14;64.48;100327.47;4936801;29;20035;-80
2023/07/15 04:16:32;;;;;;;6.28;2.25;;;;;;;19.93;61.83;100333.13;4953986;29;20030;-81
2023/07/15 04:18:57;;;;;;;5.93;2.17;;;;;;;20.72;58.99;100327.84;4954167;29;20407;-81
2023/07/15 04:21:23;;;;;;;3.25;2.40;;;;;;;21.27;57.35;100330.59;4953669;29;20035;-80
2023/07/15 04:23:48;;;;;;;4.13;2.20;;;;;;;21.18;56.98;100326.34;4953943;29;20095;-81
2023/07/15 04:26:19;;;;;;;5.15;2.30;;;;;;;21.10;57.10;100331.84;4936301;29;20030;-80
2023/07/15 04:28:45;;;;;;;5.90;2.50;;;;;;;21.45;56.09;100329.25;4942683;29;20027;-82
2023/07/15 04:31:10;;;;;;;5.22;2.20;;;;;;;21.31;56.44;100332.88;4937014;29;20031;-81
2023/07/15 04:33:36;;;;;;;5.30;2.33;;;;;;;21.29;56.44;100334.91;4953473;29;20503;-74
2023/07/15 04:36:01;;;;;;;5.63;2.20;;;;;;;21.23;57.16;100341.88;4951082;29;20035;-75
2023/07/15 04:38:26;;;;;;;3.65;2.30;;;;;;;21.15;56.85;100345.47;4953394;29;20773;-81
2023/07/15 04:40:52;;;;;;;5.75;2.35;;;;;;;21.06;57.42;100335.94;4954040;29;20042;-81
2023/07/15 04:43:20;;;;;;;5.68;2.22;;;;;;;20.88;58.00;100336.44;4942461;29;20540;-81
2023/07/15 04:45:46;;;;;;;5.75;2.10;;;;;;;20.67;58.83;100352.47;4953928;29;20431;-81
2023/07/15 04:48:12;;;;;;;6.03;2.30;;;;;;;20.49;58.93;100360.13;4954105;29;20039;-74
2023/07/15 04:50:38;;;;;;;4.90;2.38;;;;;;;20.24;59.41;100360.41;4953801;29;20050;-74
2023/07/15 04:53:04;;;;;;;9.45;2.45;;;;;;;20.21;60.03;100359.97;4954485;29;20034;-75
2023/07/15 04:55:29;;;;;;;5.63;2.38;;;;;;;20.01;60.36;100357.91;4954728;28;20039;-81
2023/07/15 04:57:54;;;;;;;5.88;1.90;;;;;;;19.95;61.14;100357.78;4944919;29;20027;-81
2023/07/15 05:00:20;;;;;;;4.90;2.22;;;;;;;19.89;61.52;100351.34;4952166;29;20439;-80
2023/07/15 05:02:46;;;;;;;3.20;2.10;;;;;;;19.86;61.87;100357.06;4971314;28;20031;-74
2023/07/15 05:05:12;;;;;;;9.48;2.63;;;;;;;19.72;63.27;100352.59;4967520;28;20023;-74
2023/07/15 05:07:43;;;;;;;3.33;2.20;;;;;;;19.73;62.69;100353.41;4963261;29;20035;-74
2023/07/15 05:10:09;;;;;;;5.97;2.42;;;;;;;19.66;62.63;100348.81;4938071;29;20115;-74
2023/07/15 05:12:34;;;;;;;6.18;2.30;;;;;;;19.65;63.42;100360.50;4961595;28;20035;-75
2023/07/15 05:15:00;;;;;;;3.70;2.22;;;;;;;19.66;63.57;100353.31;4960469;29;20039;-81
2023/07/15 05:17:25;;;;;;;4.85;2.30;;;;;;;19.65;64.10;100360.50;4963213;29;20038;-79
2023/07/15 05:19:52;;;;;;;4.35;2.20;;;;;;;19.69;64.02;100363.63;4972789;29;20031;-80
2023/07/15 05:22:18;;;;;;;6.25;2.40;;;;;;;19.67;64.38;100354.97;4973233;28;20087;-81
2023/07/15 05:24:44;;;;;;;4.88;2.25;;;;;;;19.70;63.75;100343.94;4971679;29;20047;-81
2023/07/15 05:27:09;;;;;;;5.05;2.22;;;;;;;19.69;64.18;100347.63;4954703;29;20028;-74
2023/07/15 05:29:39;;;;;;;7.43;2.22;;;;;;;19.73;64.53;100359.59;4968627;29;20104;-80
2023/07/15 05:32:05;;;;;;;4.20;2.25;;;;;;;19.77;65.22;100360.03;4971056;29;20030;-80
2023/07/15 05:34:31;;;;;;;3.92;2.40;;;;;;;19.84;65.05;100360.94;4970397;29;20027;-80
2023/07/15 05:36:56;;;;;;;5.40;2.15;;;;;;;19.90;64.21;100361.03;4972540;29;20359;-80
2023/07/15 05:39:22;;;;;;;6.57;2.47;;;;;;;19.96;64.37;100359.44;4972065;28;20039;-82
2023/07/15 05:41:48;;;;;;;4.40;2.47;;;;;;;20.02;64.68;100364.91;4971532;29;20083;-82
2023/07/15 05:44:13;;;;;;;4.65;2.05;;;;;;;20.08;65.38;100363.31;4973286;29;20035;-82
2023/07/15 05:46:40;;;;;;;4.53;2.30;;;;;;;20.14;66.00;100365.25;4966246;29;20064;-81
2023/07/15 05:49:05;;;;;;;3.63;2.20;;;;;;;20.22;64.09;100365.13;4949399;29;20038;-75
2023/07/15 05:51:32;;;;;;;4.90;2.22;;;;;;;20.27;65.31;100372.56;4949659;29;20475;-75
2023/07/15 05:53:57;;;;;;;4.63;2.53;;;;;;;20.44;64.43;100379.41;4951662;29;20456;-81
2023/07/15 05:56:23;;;;;;;3.53;2.15;;;;;;;20.50;63.50;100381.31;4948187;29;20032;-81
2023/07/15 05:58:52;;;;;;;6.97;2.58;;;;;;;20.62;62.67;100382.47;4951167;29;20054;-81
2023/07/15 06:01:17;;;;;;;4.88;2.60;;;;;;;20.73;63.35;100374.94;4947177;28;20019;-81
2023/07/15 06:03:43;;;;;;;11.90;2.45;;;;;;;20.81;63.28;100369.47;4950826;28;20078;-81
2023/07/15 06:06:13;;;;;;;4.03;2.20;;;;;;;20.85;63.02;100366.25;4945377;29;20015;-81
2023/07/15 06:08:39;;;;;;;4.53;2.38;;;;;;;20.91;63.40;100370.81;4945035;29;20035;-81
2023/07/15 06:11:04;;;;;;;6.45;2.38;;;;;;;20.95;63.93;100377.44;4950875;29;20125;-81
2023/07/15 06:13:30;;;;;;;6.63;2.33;;;;;;;21.00;64.54;100382.19;4952128;29;20058;-81
2023/07/15 06:15:55;;;;;;;7.95;2.40;;;;;;;21.05;65.11;100378.94;4951265;29;20023;-81
2023/07/15 06:18:23;;;;;;;4.28;2.20;;;;;;;21.10;65.80;100380.00;4952771;28;20122;-82
2023/07/15 06:20:50;;;;;;;5.05;2.00;;;;;;;21.14;66.75;100370.56;4950768;29;20023;-80
2023/07/15 06:23:15;;;;;;;4.20;2.22;;;;;;;21.16;67.13;100365.84;4946690;29;20027;-80
2023/07/15 06:25:40;;;;;;;5.28;1.98;;;;;;;21.16;66.77;100371.22;4951865;29;20034;-80
2023/07/15 06:28:10;;;;;;;3.22;1.80;;;;;;;21.22;66.83;100383.00;4951942;29;20029;-80
2023/07/15 06:30:35;;;;;;;4.07;1.90;;;;;;;21.25;67.31;100369.28;4952461;28;20400;-81
2023/07/15 06:33:01;;;;;;;5.47;2.05;;;;;;;21.26;67.34;100369.06;4949426;29;20161;-80
2023/07/15 06:35:26;;;;;;;4.82;1.90;;;;;;;21.31;68.06;100381.06;4951454;28;20038;-81
2023/07/15 06:37:52;;;;;;;3.50;2.03;;;;;;;21.46;67.44;100374.56;4955918;29;20102;-75
2023/07/15 06:40:18;;;;;;;4.40;2.28;;;;;;;21.65;66.47;100375.72;4957674;28;20031;-75
2023/07/15 06:42:47;;;;;;;3.63;1.92;;;;;;;21.87;66.98;100390.66;4954478;29;20038;-75
2023/07/15 06:45:12;;;;;;;5.88;2.00;;;;;;;21.98;66.03;100378.56;4955510;29;20019;-75
2023/07/15 06:47:38;;;;;;;2.90;1.83;;;;;;;22.09;66.62;100375.34;4957248;29;20109;-80
2023/07/15 06:50:04;;;;;;;3.55;1.80;;;;;;;22.21;66.06;100375.59;4955368;29;20035;-80
2023/07/15 06:52:31;;;;;;;5.80;1.90;;;;;;;22.29;65.92;100370.06;4955199;29;20464;-81
2023/07/15 06:54:57;;;;;;;7.03;2.17;;;;;;;22.40;66.64;100363.28;4954857;29;20029;-80
2023/07/15 06:57:22;;;;;;;7.13;1.70;;;;;;;22.41;65.80;100363.06;4954498;29;20027;-79
2023/07/15 06:59:48;;;;;;;5.78;1.60;;;;;;;22.49;66.32;100359.41;4955046;29;20110;-81
2023/07/15 07:02:14;;;;;;;3.95;1.60;;;;;;;22.55;65.99;100371.16;4954960;29;20035;-80
2023/07/15 07:04:39;;;;;;;4.50;1.98;;;;;;;22.65;64.53;100369.75;4954464;29;20078;-75
2023/07/15 07:07:05;;;;;;;3.58;1.73;;;;;;;22.80;65.27;100372.22;4955343;29;20078;-81
2023/07/15 07:09:30;;;;;;;5.18;1.65;;;;;;;22.98;63.04;100363.63;4947549;29;20051;-80
2023/07/15 07:11:56;;;;;;;5.40;1.63;;;;;;;23.09;62.04;100369.19;4937686;29;20071;-80
2023/07/15 07:14:21;;;;;;;3.75;1.80;;;;;;;23.14;62.00;100360.50;4956145;29;20038;-75
2023/07/15 07:16:47;;;;;;;3.40;1.40;;;;;;;23.27;62.02;100367.75;4956173;28;20480;-75
2023/07/15 07:19:12;;;;;;;3.72;1.63;;;;;;;23.40;60.97;100373.09;4955554;29;20085;-75
2023/07/15 07:21:42;;;;;;;5.50;1.63;;;;;;;23.54;61.42;100374.72;4957635;28;20525;-75
2023/07/15 07:24:09;;;;;;;2.40;1.75;;;;;;;23.55;60.52;100379.09;4955780;29;20114;-74
2023/07/15 07:26:35;;;;;;;5.85;1.80;;;;;;;23.71;60.93;100386.72;4955294;29;20034;-75
2023/07/15 07:29:05;;;;;;;8.25;1.70;;;;;;;23.90;57.95;100386.84;4949082;29;20463;-75
2023/07/15 07:31:30;;;;;;;4.90;1.50;;;;;;;24.20;57.23;100379.09;4943865;29;20506;-75
2023/07/15 07:33:56;;;;;;;6.40;1.70;;;;;;;24.45;56.99;100387.28;4954278;29;20032;-75
2023/07/15 07:36:21;;;;;;;4.72;1.30;;;;;;;24.75;56.88;100388.31;4953512;29;20034;-75
2023/07/15 07:38:46;;;;;;;2.38;1.40;;;;;;;24.82;57.06;100389.13;4953090;29;20019;-75
2023/07/15 07:41:17;;;;;;;5.07;1.30;;;;;;;24.68;56.50;100393.75;4938597;29;20669;-80
2023/07/15 07:43:43;;;;;;;3.55;1.50;;;;;;;24.85;56.92;100382.47;4954697;29;20023;-75
2023/07/15 07:46:13;;;;;;;5.15;1.70;;;;;;;25.02;57.01;100385.47;4951368;28;20031;-79
2023/07/15 07:48:38;;;;;;;4.13;1.55;;;;;;;25.17;56.37;100380.59;4954344;29;20031;-79
2023/07/15 07:51:05;;;;;;;2.83;1.58;;;;;;;25.21;56.88;100366.44;4927356;28;20110;-80
2023/07/15 07:53:31;;;;;;;3.90;1.63;;;;;;;25.32;56.90;100381.09;4952212;29;20039;-75
2023/07/15 07:55:56;;;;;;;3.33;1.42;;;;;;;25.21;57.04;100379.09;4952809;29;20081;-80
2023/07/15 07:58:22;;;;;;;7.43;1.60;;;;;;;25.30;57.46;100383.19;4953895;29;20034;-79
2023/07/15 08:00:49;;;;;;;2.63;1.10;;;;;;;25.16;57.23;100373.56;4953708;29;20039;-80
2023/07/15 08:03:14;;;;;;;5.07;1.45;;;;;;;25.09;58.04;100379.00;4953325;29;20412;-81
2023/07/15 08:05:44;;;;;;;2.25;1.42;;;;;;;25.08;57.73;100382.72;4954566;29;20034;-79
2023/07/15 08:08:11;;;;;;;2.05;1.38;;;;;;;25.09;58.45;100389.75;4953847;29;20054;-80
2023/07/15 08:10:36;;;;;;;4.10;1.50;;;;;;;25.07;58.03;100386.47;4946398;29;20527;-80
2023/07/15 08:13:05;;;;;;;6.22;1.40;;;;;;;24.98;58.96;100396.69;4954896;29;20054;-79
2023/07/15 08:15:32;;;;;;;2.38;1.52;;;;;;;24.98;59.18;100399.38;4952816;29;20066;-75
2023/07/15 08:17:57;;;;;;;3.70;1.33;;;;;;;25.07;59.21;100385.66;4953839;29;20034;-80
2023/07/15 08:20:23;;;;;;;1.98;1.20;;;;;;;25.17;58.50;100386.78;4952329;29;20396;-80
2023/07/15 08:22:49;;;;;;;3.47;1.40;;;;;;;25.16;59.22;100395.09;4954449;29;20023;-81
2023/07/15 08:25:14;;;;;;;6.47;1.38;;;;;;;25.01;58.64;100400.00;4953481;29;20090;-75
2023/07/15 08:27:40;;;;;;;3.13;1.10;;;;;;;24.92;59.17;100400.22;4954009;29;20039;-75
2023/07/15 08:30:07;;;;;;;3.53;1.20;;;;;;;24.85;59.16;100409.41;4954487;29;20055;-76
2023/07/15 08:32:32;;;;;;;4.63;1.55;;;;;;;24.81;59.98;100402.78;4936341;29;20023;-81
2023/07/15 08:35:00;;;;;;;3.58;1.10;;;;;;;24.90;59.87;100402.31;4953888;29;20030;-75
2023/07/15 08:37:26;;;;;;;6.43;1.45;;;;;;;24.90;58.84;100401.50;4952752;29;20031;-79
2023/07/15 08:39:52;;;;;;;5.05;1.60;;;;;;;24.82;59.34;100410.66;4951851;29;20019;-80
2023/07/15 08:42:19;;;;;;;7.45;1.80;;;;;;;24.85;58.95;100404.84;4952430;28;20484;-79
2023/07/15 08:44:47;;;;;;;9.82;1.98;;;;;;;24.93;57.85;100418.03;4955002;29;20015;-80
2023/07/15 08:47:21;;;;;;;4.85;1.67;;;;;;;25.02;58.34;100420.47;4935218;29;20034;-80
2023/07/15 08:49:49;;;;;;;3.83;1.65;;;;;;;24.93;58.07;100427.97;4947319;29;20110;-77
2023/07/15 08:52:23;;;;;;;9.40;1.88;;;;;;;24.79;60.10;100429.91;4954322;29;20661;-78
2023/07/15 08:54:50;;;;;;;8.25;2.10;;;;;;;24.73;59.00;100430.78;4936126;29;20399;-80
2023/07/15 08:57:22;;;;;;;5.00;1.90;;;;;;;24.59;58.89;100435.41;4947494;28;20027;-79
2023/07/15 08:59:49;;;;;;;5.47;2.05;;;;;;;24.44;58.64;100445.63;4926999;29;20030;-80
2023/07/15 09:02:14;;;;;;;6.07;2.20;;;;;;;24.34;59.10;100447.94;4936499;29;20034;-80
2023/07/15 09:04:40;;;;;;;8.23;2.00;;;;;;;24.18;58.73;100449.22;4952035;29;20027;-75
2023/07/15 09:07:10;;;;;;;7.63;2.05;;;;;;;24.13;59.54;100443.66;4936916;29;20488;-75
2023/07/15 09:09:38;;;;;;;7.30;2.00;;;;;;;24.02;60.22;100447.00;4927801;29;20032;-75
2023/07/15 09:12:14;;;;;;;6.03;1.98;;;;;;;23.95;58.36;100451.53;4952978;29;20145;-80
2023/07/15 09:14:45;;;;;;;3.97;1.80;;;;;;;23.88;58.19;100445.34;4952663;29;20058;-75
2023/07/15 09:17:21;;;;;;;7.97;2.33;;;;;;;23.84;58.60;100438.75;4951940;29;20109;-75
2023/07/15 09:19:47;;;;;;;8.02;2.10;;;;;;;23.94;58.12;100453.41;4952511;29;20391;-81
2023/07/15 09:22:13;;;;;;;4.70;1.70;;;;;;;23.98;57.75;100446.56;4953139;29;20551;-75
2023/07/15 09:24:39;;;;;;;5.30;2.08;;;;;;;24.19;57.64;100447.34;4934173;29;20027;-75
2023/07/15 09:27:08;;;;;;;6.60;1.95;;;;;;;24.28;57.88;100443.41;4953951;29;20019;-79
2023/07/15 09:29:34;;;;;;;5.05;1.85;;;;;;;24.47;57.00;100445.22;4951764;29;20472;-75
2023/07/15 09:31:59;;;;;;;4.82;1.70;;;;;;;24.51;56.88;100448.28;4933968;29;20026;-75
2023/07/15 09:34:27;;;;;;;5.00;1.65;;;;;;;24.49;56.79;100453.06;4953026;29;20534;-78
2023/07/15 09:36:53;;;;;;;4.50;1.77;;;;;;;24.35;57.06;100454.97;4949404;28;20689;-79
2023/07/15 09:39:22;;;;;;;4.25;1.80;;;;;;;24.19;57.27;100453.56;4949785;29;20035;-75
2023/07/15 09:42:10;;;;;;;5.60;1.75;;;;;;;24.12;57.87;100460.00;4949261;29;20522;-78
2023/07/15 09:44:40;;;;;;;7.20;1.90;;;;;;;24.02;59.04;100463.13;4949192;29;20534;-75
2023/07/15 09:47:06;;;;;;;6.15;2.00;;;;;;;23.99;59.49;100463.53;4946419;29;20499;-76
2023/07/15 09:49:33;;;;;;;5.43;1.83;;;;;;;24.01;58.98;100477.56;4950133;29;20153;-75
2023/07/15 09:51:59;;;;;;;2.65;1.60;;;;;;;23.97;59.33;100485.22;4940898;29;20034;-79
2023/07/15 09:54:30;;;;;;;5.55;2.17;;;;;;;23.87;59.89;100494.78;4949230;29;20074;-78
2023/07/15 09:57:02;;;;;;;9.77;2.05;;;;;;;23.83;61.57;100497.03;4950781;29;20282;-81
2023/07/15 09:59:33;;;;;;;6.38;1.80;;;;;;;23.72;61.20;100492.31;4948104;29;20289;-79
2023/07/15 10:02:05;;;;;;;4.73;1.90;;;;;;;23.62;62.13;100498.13;4950634;28;20027;-79
2023/07/15 10:04:35;;;;;;;5.50;2.50;;;;;;;23.52;63.19;100494.13;4952068;28;20520;-79
2023/07/15 10:07:02;;;;;;;8.13;2.20;;;;;;;23.44;65.10;100492.47;4950653;29;20097;-79
2023/07/15 10:09:28;;;;;;;5.00;1.92;;;;;;;23.39;65.71;100478.84;4932919;29;20027;-80
2023/07/15 10:11:55;;;;;;;9.63;2.15;;;;;;;23.32;67.45;100486.91;4950395;29;20043;-79
2023/07/15 10:14:21;;;;;;;4.85;2.20;;;;;;;23.24;67.45;100480.91;4949722;29;20024;-80
2023/07/15 10:17:12;;;;;;;7.82;1.95;;;;;;;23.25;68.51;100472.66;4951388;29;20023;-75
2023/07/15 10:19:49;;;;;;;5.18;1.90;;;;;;;23.06;69.68;100460.03;4932859;29;20074;-80
2023/07/15 10:22:20;;;;;;;2.92;1.63;;;;;;;22.95;72.23;100461.47;4931497;29;20051;-80
2023/07/15 10:24:57;;;;;;;6.60;1.95;;;;;;;22.93;71.49;100450.09;4949913;29;20024;-80
2023/07/15 10:27:30;;;;;;;6.97;1.98;;;;;;;22.89;72.70;100462.28;4933186;29;21234;-81
2023/07/15 10:30:27;;;;;;;4.90;2.00;;;;;;;22.88;74.01;100465.16;4950201;29;20118;-81
2023/07/15 10:33:00;;;;;;;5.53;1.80;;;;;;;22.91;76.11;100465.59;4948517;29;20057;-81
2023/07/15 10:35:27;;;;;;;5.70;2.00;;;;;;;22.94;77.31;100462.50;4949524;29;20605;-81
2023/07/15 10:37:52;;;;;;;4.25;1.77;;;;;;;23.02;76.75;100451.56;4949104;29;20447;-82
2023/07/15 10:40:49;;;;;;;5.47;1.98;;;;;;;23.31;74.63;100454.91;4951598;29;20062;-75
2023/07/15 10:43:18;;;;;;;4.18;2.05;;;;;;;23.39;76.96;100457.38;4951056;29;20055;-80
2023/07/15 10:45:52;;;;;;;5.65;2.13;;;;;;;23.34;75.94;100459.84;4950754;29;20451;-81
2023/07/15 10:48:18;;;;;;;2.97;1.65;;;;;;;23.29;73.57;100462.34;4950806;29;20484;-81
2023/07/15 10:50:54;;;;;;;5.82;2.15;;;;;;;23.36;75.30;100457.78;4951886;29;20043;-80
2023/07/15 10:53:26;;;;;;;3.20;1.67;;;;;;;23.35;73.89;100456.13;4951842;29;20042;-77
2023/07/15 10:56:06;;;;;;;4.78;1.90;;;;;;;23.66;73.47;100474.34;4948130;29;20042;-77
2023/07/15 10:58:32;;;;;;;7.32;2.13;;;;;;;23.85;72.17;100465.41;4951641;29;20058;-77
2023/07/15 11:01:03;;;;;;;3.38;1.60;;;;;;;23.73;72.17;100472.47;4943339;29;20070;-75
2023/07/15 11:03:32;;;;;;;6.55;2.00;;;;;;;23.66;71.70;100463.59;4950644;29;20047;-76
2023/07/15 11:05:58;;;;;;;4.70;2.30;;;;;;;23.53;71.41;100469.75;4951679;29;20381;-76
2023/07/15 11:08:24;;;;;;;4.05;2.15;;;;;;;23.53;70.51;100463.56;4950868;29;20502;-78
2023/07/15 11:11:02;;;;;;;4.47;1.70;;;;;;;23.75;69.20;100470.41;4942171;29;20110;-76
2023/07/15 11:13:29;;;;;;;5.30;2.38;;;;;;;24.15;68.28;100463.09;4942750;29;20069;-76
2023/07/15 11:15:56;;;;;;;2.97;1.90;;;;;;;24.35;65.47;100461.16;4930288;29;20028;-78
2023/07/15 11:18:26;;;;;;;3.53;1.92;;;;;;;24.34;63.96;100466.75;4932743;29;20035;-76
2023/07/15 11:20:55;;;;;;;2.78;1.65;;;;;;;24.33;61.30;100459.72;4951531;28;20027;-79
2023/07/15 11:23:21;;;;;;;11.52;2.10;;;;;;;24.19;62.64;100452.72;4953887;29;20456;-80
2023/07/15 11:25:47;;;;;;;10.30;1.85;;;;;;;24.13;62.32;100451.72;4954021;29;20037;-79